Time;durP1;ratioP1;P1;durP2;ratioP2;P2;SDS_P1;SDS_P2;PMS_P1;PMS_P2;Temp;Humidity;BMP_temperature;BMP_pressure;BME280_temperature;BME280_humidity;BME280_pressure;Samples;Min_cycle;Max_cycle;Signal;HPM_P1;HPM_P2
2021/04/02 00:01:14;;;;;;;13.27;5.30;;;;;;;;;;5115519;28;20236;-66
2021/04/02 00:03:40;;;;;;;6.78;5.88;;;;;;;;;;5115134;28;20675;-66
2021/04/02 00:06:08;;;;;;;6.28;5.68;;;;;;;;;;5115111;28;20308;-66
2021/04/02 00:08:35;;;;;;;8.77;6.30;;;;;;;;;;5115241;28;20226;-67
2021/04/02 00:11:03;;;;;;;10.20;6.15;;;;;;;;;;5115046;28;20303;-65
2021/04/02 00:13:30;;;;;;;7.72;5.95;;;;;;;;;;5115483;28;20228;-66
2021/04/02 00:15:58;;;;;;;11.07;6.93;;;;;;;;;;5115107;28;20594;-65
2021/04/02 00:18:26;;;;;;;14.00;7.40;;;;;;;;;;5115189;28;20193;-65
2021/04/02 00:20:53;;;;;;;17.08;6.65;;;;;;;;;;5115184;28;20193;-65
2021/04/02 00:23:21;;;;;;;11.45;6.28;;;;;;;;;;5115241;28;20197;-66
2021/04/02 00:25:48;;;;;;;11.40;6.57;;;;;;;;;;5114778;28;20204;-66
2021/04/02 00:28:15;;;;;;;11.05;6.10;;;;;;;;;;5114500;28;20276;-66
2021/04/02 00:30:42;;;;;;;8.52;6.93;;;;;;;;;;5114704;28;20213;-66
2021/04/02 00:33:09;;;;;;;13.20;6.88;;;;;;;;;;5114991;28;20638;-66
2021/04/02 00:35:37;;;;;;;8.48;6.38;;;;;;;;;;5114874;28;20330;-66
2021/04/02 00:38:04;;;;;;;8.32;5.15;;;;;;;;;;5114727;28;20232;-66
2021/04/02 00:40:32;;;;;;;8.18;6.25;;;;;;;;;;5114664;28;20197;-67
2021/04/02 00:42:59;;;;;;;10.60;5.95;;;;;;;;;;5115325;28;20619;-66
2021/04/02 00:45:27;;;;;;;6.95;5.43;;;;;;;;;;5115091;28;20200;-68
2021/04/02 00:47:54;;;;;;;8.23;5.80;;;;;;;;;;5114472;28;20662;-67
2021/04/02 00:50:23;;;;;;;12.27;6.50;;;;;;;;;;5114351;28;20305;-67
2021/04/02 00:52:50;;;;;;;19.58;6.53;;;;;;;;;;5114808;28;20726;-66
2021/04/02 00:55:17;;;;;;;12.05;5.93;;;;;;;;;;5114918;28;20260;-66
2021/04/02 00:57:44;;;;;;;10.57;6.55;;;;;;;;;;5114558;28;20704;-67
2021/04/02 01:00:12;;;;;;;10.35;6.00;;;;;;;;;;5114372;28;20284;-66
2021/04/02 01:02:39;;;;;;;13.63;6.82;;;;;;;;;;5114314;28;20200;-67
2021/04/02 01:05:08;;;;;;;13.20;7.13;;;;;;;;;;5114376;28;20320;-66
2021/04/02 01:07:34;;;;;;;18.77;6.47;;;;;;;;;;5113995;28;20666;-66
2021/04/02 01:10:02;;;;;;;13.95;6.43;;;;;;;;;;5114539;28;20421;-66
2021/04/02 01:12:29;;;;;;;11.27;6.75;;;;;;;;;;5113839;28;20279;-66
2021/04/02 01:14:57;;;;;;;8.68;6.38;;;;;;;;;;5114601;28;20299;-66
2021/04/02 01:17:24;;;;;;;11.93;6.07;;;;;;;;;;5113813;28;20203;-66
2021/04/02 01:19:54;;;;;;;10.45;6.20;;;;;;;;;;5114198;28;20753;-66
2021/04/02 01:22:23;;;;;;;13.23;6.55;;;;;;;;;;5114238;28;20330;-66
2021/04/02 01:24:59;;;;;;;9.43;5.60;;;;;;;;;;5113689;28;20662;-67
2021/04/02 01:27:33;;;;;;;12.95;5.68;;;;;;;;;;5114497;28;20634;-66
2021/04/02 01:30:02;;;;;;;8.50;6.15;;;;;;;;;;5113591;28;20211;-67
2021/04/02 01:32:30;;;;;;;12.85;5.03;;;;;;;;;;5113934;28;20249;-66
2021/04/02 01:35:00;;;;;;;14.25;6.15;;;;;;;;;;5113885;28;20285;-66
2021/04/02 01:37:28;;;;;;;12.02;6.15;;;;;;;;;;5113842;28;20284;-66
2021/04/02 01:39:56;;;;;;;15.98;6.70;;;;;;;;;;5113538;28;20193;-67
2021/04/02 01:42:25;;;;;;;13.18;6.40;;;;;;;;;;5114716;28;20196;-66
2021/04/02 01:44:53;;;;;;;11.43;6.90;;;;;;;;;;5113718;28;20283;-66
2021/04/02 01:47:21;;;;;;;10.20;6.60;;;;;;;;;;5118810;28;20714;-66
2021/04/02 01:49:49;;;;;;;9.52;5.40;;;;;;;;;;5118312;28;20279;-66
2021/04/02 01:52:16;;;;;;;8.43;6.40;;;;;;;;;;5117855;28;20231;-66
2021/04/02 01:54:43;;;;;;;9.98;6.57;;;;;;;;;;5117427;28;20228;-66
2021/04/02 01:57:11;;;;;;;11.68;5.35;;;;;;;;;;5117527;28;20259;-66
2021/04/02 01:59:38;;;;;;;13.77;6.05;;;;;;;;;;5117400;28;20228;-66
2021/04/02 02:02:07;;;;;;;16.38;6.65;;;;;;;;;;5117954;28;20603;-66
2021/04/02 02:04:34;;;;;;;8.98;5.82;;;;;;;;;;5117332;28;20204;-66
2021/04/02 02:07:02;;;;;;;10.55;5.57;;;;;;;;;;5117833;28;20193;-66
2021/04/02 02:09:30;;;;;;;9.68;5.88;;;;;;;;;;5117526;28;20279;-66
2021/04/02 02:11:58;;;;;;;11.00;5.90;;;;;;;;;;5117508;28;20279;-66
2021/04/02 02:14:27;;;;;;;19.88;6.40;;;;;;;;;;5117514;28;20295;-67
2021/04/02 02:16:56;;;;;;;13.90;5.53;;;;;;;;;;5117103;28;20301;-66
2021/04/02 02:19:24;;;;;;;13.27;7.22;;;;;;;;;;5117060;28;20280;-66
2021/04/02 02:21:53;;;;;;;11.93;5.68;;;;;;;;;;5117317;28;20288;-66
2021/04/02 02:24:20;;;;;;;10.35;6.13;;;;;;;;;;5117835;28;20616;-66
2021/04/02 02:26:47;;;;;;;16.40;6.65;;;;;;;;;;5116820;28;20237;-66
2021/04/02 02:29:15;;;;;;;10.32;5.60;;;;;;;;;;5116870;28;20284;-66
2021/04/02 02:31:42;;;;;;;16.08;6.53;;;;;;;;;;5117053;28;20301;-66
2021/04/02 02:34:09;;;;;;;11.52;4.95;;;;;;;;;;5116714;28;20204;-66
2021/04/02 02:36:37;;;;;;;11.07;6.38;;;;;;;;;;5117006;28;20309;-66
2021/04/02 02:39:08;;;;;;;14.20;5.75;;;;;;;;;;5117024;28;20279;-67
2021/04/02 02:41:35;;;;;;;17.63;6.53;;;;;;;;;;5117176;28;20223;-66
2021/04/02 02:44:01;;;;;;;9.07;4.70;;;;;;;;;;5116857;28;20701;-66
2021/04/02 02:46:29;;;;;;;10.88;5.18;;;;;;;;;;5116561;28;20285;-66
2021/04/02 02:48:58;;;;;;;12.93;5.65;;;;;;;;;;5116785;28;20300;-66
2021/04/02 02:51:28;;;;;;;17.38;7.72;;;;;;;;;;5116668;28;20304;-66
2021/04/02 02:53:55;;;;;;;10.63;5.80;;;;;;;;;;5116633;28;20722;-66
2021/04/02 02:56:22;;;;;;;8.85;5.82;;;;;;;;;;5115829;28;20288;-66
2021/04/02 02:58:49;;;;;;;14.13;6.97;;;;;;;;;;5116216;28;20262;-66
2021/04/02 03:01:17;;;;;;;15.23;8.55;;;;;;;;;;5117106;28;20284;-66
2021/04/02 03:03:44;;;;;;;19.48;8.48;;;;;;;;;;5116967;28;20280;-67
2021/04/02 03:06:12;;;;;;;13.30;6.10;;;;;;;;;;5116752;28;20307;-66
2021/04/02 03:08:40;;;;;;;10.10;6.30;;;;;;;;;;5116451;28;20262;-66
2021/04/02 03:11:09;;;;;;;9.57;6.05;;;;;;;;;;5116326;28;20249;-67
2021/04/02 03:13:37;;;;;;;13.32;7.10;;;;;;;;;;5116017;28;20725;-66
2021/04/02 03:16:05;;;;;;;11.25;7.20;;;;;;;;;;5116453;28;20250;-66
2021/04/02 03:18:32;;;;;;;11.25;5.88;;;;;;;;;;5116403;28;20232;-66
2021/04/02 03:20:59;;;;;;;21.77;7.72;;;;;;;;;;5116429;28;20283;-66
2021/04/02 03:23:26;;;;;;;23.02;7.28;;;;;;;;;;5115863;28;20284;-66
2021/04/02 03:25:53;;;;;;;14.98;6.97;;;;;;;;;;5115724;28;20197;-67
2021/04/02 03:28:20;;;;;;;9.85;6.57;;;;;;;;;;5115762;28;20651;-67
2021/04/02 03:30:48;;;;;;;15.90;6.60;;;;;;;;;;5115655;28;20815;-67
2021/04/02 03:33:16;;;;;;;11.55;6.63;;;;;;;;;;5115680;28;20689;-66
2021/04/02 03:35:44;;;;;;;11.40;7.28;;;;;;;;;;5115920;28;20280;-67
2021/04/02 03:38:11;;;;;;;13.20;6.05;;;;;;;;;;5116114;28;20284;-67
2021/04/02 03:40:39;;;;;;;15.10;6.50;;;;;;;;;;5115516;28;20288;-66
2021/04/02 03:43:06;;;;;;;12.55;7.35;;;;;;;;;;5116008;28;20560;-67
2021/04/02 03:45:34;;;;;;;11.80;6.50;;;;;;;;;;5115413;28;20276;-67
2021/04/02 03:48:03;;;;;;;8.80;6.32;;;;;;;;;;5115401;28;20279;-67
2021/04/02 03:50:31;;;;;;;13.82;7.68;;;;;;;;;;5115274;28;20303;-66
2021/04/02 03:53:03;;;;;;;19.90;6.97;;;;;;;;;;5115443;28;20193;-66
2021/04/02 03:55:30;;;;;;;15.98;8.20;;;;;;;;;;5115327;28;20272;-66
2021/04/02 03:57:57;;;;;;;9.32;6.65;;;;;;;;;;5115768;28;20284;-66
2021/04/02 04:00:26;;;;;;;13.27;8.07;;;;;;;;;;5115368;28;20331;-66
2021/04/02 04:02:53;;;;;;;19.50;7.03;;;;;;;;;;5115040;28;20285;-67
2021/04/02 04:05:22;;;;;;;17.33;7.47;;;;;;;;;;5115363;28;20252;-66
2021/04/02 04:07:49;;;;;;;14.10;7.68;;;;;;;;;;5115085;28;20276;-67
2021/04/02 04:10:16;;;;;;;10.52;5.72;;;;;;;;;;5114792;28;20220;-67
2021/04/02 04:12:46;;;;;;;25.20;7.60;;;;;;;;;;5115204;28;20193;-66
2021/04/02 04:15:14;;;;;;;14.20;7.10;;;;;;;;;;5115413;28;20241;-66
2021/04/02 04:17:41;;;;;;;11.65;6.45;;;;;;;;;;5114813;28;20283;-66
2021/04/02 04:20:09;;;;;;;19.35;7.35;;;;;;;;;;5114767;28;20196;-67
2021/04/02 04:22:39;;;;;;;13.50;8.38;;;;;;;;;;5115453;28;20201;-66
2021/04/02 04:25:07;;;;;;;13.80;7.22;;;;;;;;;;5114654;28;20197;-67
2021/04/02 04:27:35;;;;;;;17.35;7.30;;;;;;;;;;5114500;28;20279;-67
2021/04/02 04:30:03;;;;;;;14.45;7.05;;;;;;;;;;5114765;28;20280;-67
2021/04/02 04:32:30;;;;;;;14.10;8.23;;;;;;;;;;5114780;28;20225;-67
2021/04/02 04:34:57;;;;;;;22.38;8.35;;;;;;;;;;5114743;28;20281;-67
2021/04/02 04:37:24;;;;;;;24.73;8.60;;;;;;;;;;5114361;28;20279;-68
2021/04/02 04:39:52;;;;;;;16.60;8.40;;;;;;;;;;5114643;28;20280;-64
2021/04/02 04:42:20;;;;;;;10.38;8.50;;;;;;;;;;5114869;28;20628;-66
2021/04/02 04:44:48;;;;;;;21.85;9.65;;;;;;;;;;5114230;28;20284;-66
2021/04/02 04:47:15;;;;;;;10.15;8.45;;;;;;;;;;5114544;28;20193;-68
2021/04/02 04:49:48;;;;;;;14.68;7.72;;;;;;;;;;5114543;28;20287;-68
2021/04/02 04:52:17;;;;;;;16.42;8.55;;;;;;;;;;5108610;28;20194;-67
2021/04/02 04:54:52;;;;;;;14.48;8.43;;;;;;;;;;5102630;28;20289;-68
2021/04/02 04:57:21;;;;;;;15.40;8.40;;;;;;;;;;5094154;28;20289;-68
2021/04/02 04:59:48;;;;;;;12.90;7.60;;;;;;;;;;5093691;28;20765;-67
2021/04/02 05:02:16;;;;;;;15.30;7.05;;;;;;;;;;5093782;28;20280;-68
2021/04/02 05:04:44;;;;;;;13.32;8.05;;;;;;;;;;5094036;28;20284;-67
2021/04/02 05:07:11;;;;;;;14.40;7.60;;;;;;;;;;5094135;28;20268;-68
2021/04/02 05:09:38;;;;;;;26.10;9.77;;;;;;;;;;5094171;28;20280;-68
2021/04/02 05:12:06;;;;;;;14.70;8.35;;;;;;;;;;5093780;28;20313;-69
2021/04/02 05:14:34;;;;;;;20.80;8.60;;;;;;;;;;5093090;28;20197;-67
2021/04/02 05:17:01;;;;;;;19.98;9.18;;;;;;;;;;5093762;28;20277;-67
2021/04/02 05:19:28;;;;;;;13.13;7.43;;;;;;;;;;5093292;28;20225;-67
2021/04/02 05:21:55;;;;;;;14.32;7.05;;;;;;;;;;5097851;28;20285;-68
2021/04/02 05:24:23;;;;;;;14.30;8.35;;;;;;;;;;5113973;28;20280;-68
2021/04/02 05:26:50;;;;;;;15.82;6.68;;;;;;;;;;5114112;28;20304;-67
2021/04/02 05:29:16;;;;;;;13.68;8.65;;;;;;;;;;5113973;28;20236;-67
2021/04/02 05:31:45;;;;;;;13.32;8.98;;;;;;;;;;5114309;28;20307;-68
2021/04/02 05:34:12;;;;;;;15.45;6.10;;;;;;;;;;5113534;28;20193;-68
2021/04/02 05:36:38;;;;;;;15.15;7.15;;;;;;;;;;5113801;28;20193;-67
2021/04/02 05:39:06;;;;;;;17.95;7.38;;;;;;;;;;5113810;28;20236;-67
2021/04/02 05:41:35;;;;;;;13.65;6.15;;;;;;;;;;5113541;28;20236;-68
2021/04/02 05:44:04;;;;;;;16.08;7.60;;;;;;;;;;5113515;28;20284;-67
2021/04/02 05:46:31;;;;;;;18.60;6.63;;;;;;;;;;5114162;28;20281;-67
2021/04/02 05:49:00;;;;;;;17.17;5.65;;;;;;;;;;5113483;28;20287;-67
2021/04/02 05:51:28;;;;;;;11.68;6.47;;;;;;;;;;5113324;28;20298;-67
2021/04/02 05:53:56;;;;;;;11.27;6.30;;;;;;;;;;5113673;28;20650;-67
2021/04/02 05:56:22;;;;;;;12.90;5.68;;;;;;;;;;5113220;28;20208;-67
2021/04/02 05:58:50;;;;;;;15.40;5.80;;;;;;;;;;5113897;28;20204;-66
2021/04/02 06:01:17;;;;;;;12.00;6.20;;;;;;;;;;5113362;28;20288;-66
2021/04/02 06:03:44;;;;;;;12.80;5.65;;;;;;;;;;5113368;28;20230;-67
2021/04/02 06:06:13;;;;;;;16.65;5.70;;;;;;;;;;5113125;28;20231;-67
2021/04/02 06:08:41;;;;;;;14.63;6.13;;;;;;;;;;5113359;28;20234;-67
2021/04/02 06:11:07;;;;;;;10.90;5.63;;;;;;;;;;5114114;28;20629;-67
2021/04/02 06:13:34;;;;;;;10.85;6.00;;;;;;;;;;5113299;28;20240;-67
2021/04/02 06:16:01;;;;;;;18.50;6.75;;;;;;;;;;5113412;28;20240;-67
2021/04/02 06:18:28;;;;;;;8.77;5.18;;;;;;;;;;5113553;28;20224;-67
2021/04/02 06:20:55;;;;;;;12.10;5.43;;;;;;;;;;5113546;28;20229;-67
2021/04/02 06:23:23;;;;;;;13.90;7.38;;;;;;;;;;5113186;28;20276;-67
2021/04/02 06:25:50;;;;;;;15.93;6.25;;;;;;;;;;5113839;28;20256;-67
2021/04/02 06:28:18;;;;;;;11.02;5.38;;;;;;;;;;5113618;28;20297;-67
2021/04/02 06:30:45;;;;;;;13.38;5.50;;;;;;;;;;5113398;28;20261;-67
2021/04/02 06:33:13;;;;;;;8.32;5.38;;;;;;;;;;5117041;28;20224;-67
2021/04/02 06:35:43;;;;;;;13.43;6.32;;;;;;;;;;5117074;27;20288;-67
2021/04/02 06:38:10;;;;;;;25.52;6.93;;;;;;;;;;5116625;28;20243;-67
2021/04/02 06:40:38;;;;;;;7.28;5.40;;;;;;;;;;5117320;28;20201;-68
2021/04/02 06:43:05;;;;;;;15.65;5.20;;;;;;;;;;5118930;28;20200;-68
2021/04/02 06:45:32;;;;;;;8.73;4.88;;;;;;;;;;5117256;28;20189;-68
2021/04/02 06:48:09;;;;;;;14.07;5.40;;;;;;;;;;5116841;28;20244;-68
2021/04/02 06:50:36;;;;;;;15.43;6.88;;;;;;;;;;5116483;28;20300;-63
2021/04/02 06:53:04;;;;;;;11.63;5.85;;;;;;;;;;5116865;28;20201;-64
2021/04/02 06:55:31;;;;;;;13.55;5.57;;;;;;;;;;5116971;28;20197;-63
2021/04/02 06:58:04;;;;;;;9.63;5.60;;;;;;;;;;5116273;28;20568;-63
2021/04/02 07:00:31;;;;;;;12.35;5.80;;;;;;;;;;5117119;28;20311;-63
2021/04/02 07:02:57;;;;;;;12.13;6.30;;;;;;;;;;5115556;28;20514;-62
2021/04/02 07:05:25;;;;;;;13.40;5.95;;;;;;;;;;5116039;28;20265;-66
2021/04/02 07:07:54;;;;;;;14.13;5.93;;;;;;;;;;5116106;28;20201;-65
2021/04/02 07:10:21;;;;;;;10.18;5.70;;;;;;;;;;5116144;28;20672;-65
2021/04/02 07:12:50;;;;;;;8.75;5.43;;;;;;;;;;5116685;28;20246;-66
2021/04/02 07:15:18;;;;;;;7.57;5.78;;;;;;;;;;5115985;28;20234;-65
2021/04/02 07:17:46;;;;;;;9.25;5.68;;;;;;;;;;5115974;28;20288;-65
2021/04/02 07:20:13;;;;;;;7.07;4.68;;;;;;;;;;5116186;27;20627;-65
2021/04/02 07:22:41;;;;;;;9.25;6.35;;;;;;;;;;5115420;28;20643;-66
2021/04/02 07:25:08;;;;;;;6.65;4.80;;;;;;;;;;5115891;28;20292;-66
2021/04/02 07:27:35;;;;;;;10.02;5.82;;;;;;;;;;5115984;28;20259;-66
2021/04/02 07:30:02;;;;;;;7.03;5.75;;;;;;;;;;5115788;28;20194;-66
2021/04/02 07:32:31;;;;;;;9.05;5.90;;;;;;;;;;5115870;28;20655;-66
2021/04/02 07:34:59;;;;;;;9.43;5.97;;;;;;;;;;5115804;28;20195;-66
2021/04/02 07:37:26;;;;;;;6.70;5.43;;;;;;;;;;5115550;28;20701;-66
2021/04/02 07:39:55;;;;;;;9.52;6.20;;;;;;;;;;5115561;28;20230;-66
2021/04/02 07:42:22;;;;;;;7.63;5.63;;;;;;;;;;5115653;28;20233;-66
2021/04/02 07:44:54;;;;;;;7.07;4.93;;;;;;;;;;5114817;28;20204;-65
2021/04/02 07:47:22;;;;;;;8.65;4.80;;;;;;;;;;5115727;28;20341;-65
2021/04/02 07:49:58;;;;;;;10.55;5.28;;;;;;;;;;5115288;28;20193;-66
2021/04/02 07:52:31;;;;;;;11.27;5.57;;;;;;;;;;5115199;28;20688;-66
2021/04/02 07:55:08;;;;;;;8.13;4.95;;;;;;;;;;5115466;28;20232;-65
2021/04/02 07:57:49;;;;;;;8.70;5.10;;;;;;;;;;5115782;28;20394;-66
2021/04/02 08:00:16;;;;;;;4.93;4.20;;;;;;;;;;5115988;28;20216;-66
2021/04/02 08:02:44;;;;;;;6.25;4.63;;;;;;;;;;5115123;28;20228;-66
2021/04/02 08:05:20;;;;;;;8.07;4.57;;;;;;;;;;5115697;28;20228;-65
2021/04/02 08:07:47;;;;;;;12.75;4.90;;;;;;;;;;5115620;28;20189;-65
2021/04/02 08:10:15;;;;;;;10.25;6.45;;;;;;;;;;5114966;28;20613;-65
2021/04/02 08:12:42;;;;;;;10.68;5.95;;;;;;;;;;5114844;28;20197;-65
2021/04/02 08:15:10;;;;;;;8.23;6.28;;;;;;;;;;5115274;28;20639;-65
2021/04/02 08:17:37;;;;;;;8.32;4.45;;;;;;;;;;5114991;27;20193;-65
2021/04/02 08:20:06;;;;;;;6.13;4.65;;;;;;;;;;5114657;28;20231;-66
2021/04/02 08:22:37;;;;;;;13.07;5.18;;;;;;;;;;5114617;28;20201;-66
2021/04/02 08:25:06;;;;;;;8.43;4.90;;;;;;;;;;5114136;27;20193;-65
2021/04/02 08:27:33;;;;;;;6.35;4.43;;;;;;;;;;5114534;28;20200;-66
2021/04/02 08:30:04;;;;;;;8.98;5.00;;;;;;;;;;5115045;28;20220;-65
2021/04/02 08:32:34;;;;;;;8.40;6.18;;;;;;;;;;5114535;28;20211;-65
2021/04/02 08:35:01;;;;;;;10.55;5.03;;;;;;;;;;5114632;28;20335;-64
2021/04/02 08:37:29;;;;;;;13.15;5.20;;;;;;;;;;5114403;28;20721;-65
2021/04/02 08:39:57;;;;;;;7.50;5.03;;;;;;;;;;5114688;28;20209;-65
2021/04/02 08:42:23;;;;;;;7.75;4.80;;;;;;;;;;5114864;28;20224;-66
2021/04/02 08:44:50;;;;;;;8.32;4.45;;;;;;;;;;5114109;28;20289;-66
2021/04/02 08:47:18;;;;;;;10.00;5.07;;;;;;;;;;5114832;28;20285;-66
2021/04/02 08:49:47;;;;;;;9.88;4.30;;;;;;;;;;5113879;28;20289;-65
2021/04/02 08:52:15;;;;;;;10.32;5.47;;;;;;;;;;5114048;28;20208;-66
2021/04/02 08:54:42;;;;;;;12.18;4.90;;;;;;;;;;5113666;28;20280;-66
2021/04/02 08:57:11;;;;;;;5.70;4.30;;;;;;;;;;5114106;28;20293;-65
2021/04/02 08:59:39;;;;;;;9.60;4.70;;;;;;;;;;5113881;28;20216;-66
2021/04/02 09:02:07;;;;;;;12.95;4.82;;;;;;;;;;5114338;28;20235;-66
2021/04/02 09:04:34;;;;;;;11.23;5.63;;;;;;;;;;5113948;28;20228;-65
2021/04/02 09:07:01;;;;;;;8.15;4.75;;;;;;;;;;5113946;28;20247;-65
2021/04/02 09:09:29;;;;;;;9.65;4.38;;;;;;;;;;5114237;28;20546;-66
2021/04/02 09:11:56;;;;;;;8.18;4.18;;;;;;;;;;5114117;28;20645;-66
2021/04/02 09:14:24;;;;;;;7.85;4.20;;;;;;;;;;5114073;28;20280;-66
2021/04/02 09:16:55;;;;;;;5.70;3.88;;;;;;;;;;5113952;28;20199;-65
2021/04/02 09:19:23;;;;;;;9.38;3.40;;;;;;;;;;5115124;28;20193;-65
2021/04/02 09:21:51;;;;;;;10.18;4.72;;;;;;;;;;5113863;28;20276;-65
2021/04/02 09:24:17;;;;;;;6.78;3.35;;;;;;;;;;5114615;28;20216;-65
2021/04/02 09:26:44;;;;;;;9.52;3.80;;;;;;;;;;5114166;28;20309;-66
2021/04/02 09:29:11;;;;;;;7.47;4.20;;;;;;;;;;5113489;28;20285;-66
2021/04/02 09:31:41;;;;;;;8.00;3.80;;;;;;;;;;5113368;28;20775;-65
2021/04/02 09:34:08;;;;;;;7.55;4.07;;;;;;;;;;5113577;28;20189;-65
2021/04/02 09:36:36;;;;;;;4.28;3.88;;;;;;;;;;5114016;28;20239;-65
2021/04/02 09:39:05;;;;;;;12.27;4.20;;;;;;;;;;5113681;28;20279;-65
2021/04/02 09:41:32;;;;;;;11.48;4.05;;;;;;;;;;5113967;28;20230;-66
2021/04/02 09:44:06;;;;;;;14.65;4.50;;;;;;;;;;5113812;28;20777;-65
2021/04/02 09:46:34;;;;;;;8.32;4.38;;;;;;;;;;5113595;28;20213;-67
2021/04/02 09:49:03;;;;;;;10.57;3.95;;;;;;;;;;5113481;28;20717;-65
2021/04/02 09:51:31;;;;;;;8.15;3.47;;;;;;;;;;5113532;28;20252;-65
2021/04/02 09:53:57;;;;;;;6.97;3.38;;;;;;;;;;5114821;28;20606;-67
2021/04/02 09:56:24;;;;;;;6.78;3.50;;;;;;;;;;5114455;28;20649;-66
2021/04/02 09:58:51;;;;;;;5.97;2.95;;;;;;;;;;5113446;28;20293;-66
2021/04/02 10:01:18;;;;;;;6.22;2.97;;;;;;;;;;5113926;28;20284;-66
2021/04/02 10:03:44;;;;;;;10.45;4.10;;;;;;;;;;5113366;28;20670;-66
2021/04/02 10:06:12;;;;;;;7.43;3.85;;;;;;;;;;5114328;28;20686;-67
2021/04/02 10:08:39;;;;;;;9.93;3.70;;;;;;;;;;5117630;28;20190;-65
2021/04/02 10:11:06;;;;;;;14.35;3.83;;;;;;;;;;5117573;28;20252;-67
2021/04/02 10:13:32;;;;;;;11.55;3.63;;;;;;;;;;5117397;28;20240;-67
2021/04/02 10:15:59;;;;;;;7.25;3.65;;;;;;;;;;5116580;28;20276;-66
2021/04/02 10:18:27;;;;;;;5.38;3.25;;;;;;;;;;5117429;28;20196;-66
2021/04/02 10:20:54;;;;;;;6.18;3.90;;;;;;;;;;5117431;28;20625;-66
2021/04/02 10:23:22;;;;;;;4.75;3.40;;;;;;;;;;5116877;28;20293;-66
2021/04/02 10:25:49;;;;;;;5.47;3.30;;;;;;;;;;5117247;28;20621;-66
2021/04/02 10:28:16;;;;;;;10.93;4.20;;;;;;;;;;5117200;28;20288;-66
2021/04/02 10:30:43;;;;;;;7.88;4.25;;;;;;;;;;5117170;28;20625;-66
2021/04/02 10:33:09;;;;;;;7.40;3.20;;;;;;;;;;5117226;28;20200;-67
2021/04/02 10:35:37;;;;;;;7.18;4.10;;;;;;;;;;5117128;28;20231;-65
2021/04/02 10:38:04;;;;;;;10.65;3.83;;;;;;;;;;5116668;28;20197;-65
2021/04/02 10:40:33;;;;;;;7.70;4.63;;;;;;;;;;5117074;28;20251;-66
2021/04/02 10:43:00;;;;;;;8.25;4.75;;;;;;;;;;5116968;28;20195;-65
2021/04/02 10:45:27;;;;;;;11.88;5.18;;;;;;;;;;5116587;28;20291;-65
2021/04/02 10:47:53;;;;;;;9.68;6.03;;;;;;;;;;5116940;28;20230;-65
2021/04/02 10:50:20;;;;;;;8.48;5.70;;;;;;;;;;5116449;28;20289;-65
2021/04/02 10:52:47;;;;;;;13.95;6.65;;;;;;;;;;5116488;28;20275;-66
2021/04/02 10:55:14;;;;;;;12.57;6.80;;;;;;;;;;5116427;28;20280;-65
2021/04/02 10:57:42;;;;;;;11.88;8.07;;;;;;;;;;5116633;28;20193;-65
2021/04/02 11:00:09;;;;;;;9.55;6.20;;;;;;;;;;5116397;28;20375;-65
2021/04/02 11:02:36;;;;;;;9.43;6.10;;;;;;;;;;5116863;28;20201;-65
2021/04/02 11:05:04;;;;;;;10.30;5.45;;;;;;;;;;5116401;28;20226;-65
2021/04/02 11:07:30;;;;;;;7.35;4.68;;;;;;;;;;5116477;28;20196;-66
2021/04/02 11:09:57;;;;;;;7.38;4.03;;;;;;;;;;5116741;28;20276;-66
2021/04/02 11:12:28;;;;;;;7.38;4.32;;;;;;;;;;5116406;28;20304;-65
2021/04/02 11:14:55;;;;;;;6.68;4.28;;;;;;;;;;5116651;28;20181;-66
2021/04/02 11:17:22;;;;;;;9.43;3.80;;;;;;;;;;5115486;28;20197;-65
2021/04/02 11:19:49;;;;;;;5.65;3.60;;;;;;;;;;5115734;28;20232;-66
2021/04/02 11:22:16;;;;;;;10.40;4.57;;;;;;;;;;5116681;28;20573;-66
2021/04/02 11:24:43;;;;;;;5.78;4.00;;;;;;;;;;5115884;28;20706;-66
2021/04/02 11:27:10;;;;;;;6.13;4.40;;;;;;;;;;5116672;28;20256;-65
2021/04/02 11:29:37;;;;;;;6.35;4.57;;;;;;;;;;5116036;28;20228;-66
2021/04/02 11:32:06;;;;;;;5.97;4.75;;;;;;;;;;5116210;28;20224;-66
2021/04/02 11:34:33;;;;;;;6.03;5.15;;;;;;;;;;5116403;28;20283;-66
2021/04/02 11:36:59;;;;;;;5.85;4.18;;;;;;;;;;5116571;28;20544;-66
2021/04/02 11:39:26;;;;;;;6.07;4.78;;;;;;;;;;5115829;28;20202;-66
2021/04/02 11:41:53;;;;;;;8.23;4.55;;;;;;;;;;5115794;28;20671;-67
2021/04/02 11:44:20;;;;;;;9.30;4.47;;;;;;;;;;5115751;27;20200;-65
2021/04/02 11:46:47;;;;;;;9.07;5.22;;;;;;;;;;5115952;28;20315;-66
2021/04/02 11:49:14;;;;;;;6.00;3.90;;;;;;;;;;5113256;28;20197;-67
2021/04/02 11:51:41;;;;;;;9.45;3.70;;;;;;;;;;5105985;28;20230;-66
2021/04/02 11:54:08;;;;;;;3.42;2.63;;;;;;;;;;5115380;28;20534;-67
2021/04/02 11:56:35;;;;;;;11.25;4.32;;;;;;;;;;5115357;28;20229;-66
2021/04/02 11:59:01;;;;;;;12.35;3.90;;;;;;;;;;5115138;28;20280;-68
2021/04/02 12:01:28;;;;;;;6.25;3.97;;;;;;;;;;5115265;28;20236;-66
2021/04/02 12:03:55;;;;;;;9.90;4.20;;;;;;;;;;5115350;28;20242;-67
2021/04/02 12:06:23;;;;;;;4.60;3.55;;;;;;;;;;5115427;28;20226;-67
2021/04/02 12:08:49;;;;;;;4.82;3.45;;;;;;;;;;5115055;28;20610;-67
2021/04/02 12:11:16;;;;;;;4.13;3.75;;;;;;;;;;5115465;28;20217;-67
2021/04/02 12:13:43;;;;;;;10.13;3.30;;;;;;;;;;5115535;28;20225;-67
2021/04/02 12:16:10;;;;;;;6.93;5.57;;;;;;;;;;5115179;28;20255;-67
2021/04/02 12:18:36;;;;;;;9.70;4.07;;;;;;;;;;5114843;28;20233;-66
2021/04/02 12:21:03;;;;;;;5.43;4.38;;;;;;;;;;5115339;28;20277;-68
2021/04/02 12:23:31;;;;;;;10.75;5.03;;;;;;;;;;5114868;28;20198;-66
2021/04/02 12:25:58;;;;;;;8.40;3.75;;;;;;;;;;5114806;28;20316;-65
2021/04/02 12:28:24;;;;;;;7.05;3.83;;;;;;;;;;5114882;28;20189;-66
2021/04/02 12:30:51;;;;;;;7.75;3.72;;;;;;;;;;5114413;28;22133;-67
2021/04/02 12:33:18;;;;;;;11.98;3.50;;;;;;;;;;5114473;28;20200;-67
2021/04/02 12:35:45;;;;;;;7.13;4.20;;;;;;;;;;5114493;28;20580;-68
2021/04/02 12:38:12;;;;;;;11.88;3.88;;;;;;;;;;5114115;28;20654;-68
2021/04/02 12:40:39;;;;;;;5.38;3.53;;;;;;;;;;5114355;28;20284;-66
2021/04/02 12:43:06;;;;;;;4.18;3.40;;;;;;;;;;5114515;28;20231;-67
2021/04/02 12:45:34;;;;;;;8.25;4.75;;;;;;;;;;5114105;28;20197;-67
2021/04/02 12:48:01;;;;;;;9.77;4.00;;;;;;;;;;5114487;28;20193;-68
2021/04/02 12:50:28;;;;;;;6.95;4.22;;;;;;;;;;5113817;28;20193;-66
2021/04/02 12:52:55;;;;;;;10.63;4.20;;;;;;;;;;5114289;28;20222;-66
2021/04/02 12:55:23;;;;;;;9.73;5.03;;;;;;;;;;5114129;28;20189;-66
2021/04/02 12:57:50;;;;;;;6.85;4.50;;;;;;;;;;5114287;28;20718;-65
2021/04/02 13:00:18;;;;;;;7.10;5.05;;;;;;;;;;5114166;28;20235;-65
2021/04/02 13:02:45;;;;;;;11.63;3.88;;;;;;;;;;5114106;28;20598;-66
2021/04/02 13:05:13;;;;;;;10.25;4.65;;;;;;;;;;5113768;28;20221;-66
2021/04/02 13:07:40;;;;;;;12.20;4.97;;;;;;;;;;5114292;28;20572;-67
2021/04/02 13:10:10;;;;;;;9.60;4.00;;;;;;;;;;5114324;28;20302;-67
2021/04/02 13:12:37;;;;;;;7.43;3.50;;;;;;;;;;5114562;28;20742;-67
2021/04/02 13:15:05;;;;;;;12.73;3.95;;;;;;;;;;5113761;28;20198;-66
2021/04/02 13:17:32;;;;;;;7.00;4.30;;;;;;;;;;5113802;28;20197;-67
2021/04/02 13:19:59;;;;;;;10.13;3.40;;;;;;;;;;5113280;28;20283;-67
2021/04/02 13:22:26;;;;;;;5.50;3.30;;;;;;;;;;5113741;28;20236;-66
2021/04/02 13:24:53;;;;;;;12.48;3.70;;;;;;;;;;5113213;28;20303;-66
2021/04/02 13:27:19;;;;;;;10.80;3.95;;;;;;;;;;5114341;28;20681;-67
2021/04/02 13:29:46;;;;;;;12.43;4.45;;;;;;;;;;5113773;28;20598;-70
2021/04/02 13:32:14;;;;;;;6.10;4.13;;;;;;;;;;5113900;28;20611;-67
2021/04/02 13:34:40;;;;;;;18.25;5.68;;;;;;;;;;5113728;28;20193;-64
2021/04/02 13:37:07;;;;;;;6.47;3.83;;;;;;;;;;5113610;28;20287;-65
2021/04/02 13:39:34;;;;;;;5.75;3.55;;;;;;;;;;5113876;28;20310;-66
2021/04/02 13:42:01;;;;;;;7.72;3.92;;;;;;;;;;5116419;28;20228;-66
2021/04/02 13:44:27;;;;;;;4.63;4.22;;;;;;;;;;5117876;28;20283;-65
2021/04/02 13:46:54;;;;;;;9.35;4.00;;;;;;;;;;5117525;28;20717;-66
2021/04/02 13:49:22;;;;;;;8.40;4.20;;;;;;;;;;5117266;28;20189;-64
2021/04/02 13:51:49;;;;;;;9.52;3.88;;;;;;;;;;5117758;28;20259;-64
2021/04/02 13:54:16;;;;;;;3.58;2.90;;;;;;;;;;5117633;28;20292;-65
2021/04/02 13:56:42;;;;;;;8.40;3.47;;;;;;;;;;5117468;28;20651;-65
2021/04/02 13:59:10;;;;;;;8.02;3.42;;;;;;;;;;5117871;28;20193;-64
2021/04/02 14:01:36;;;;;;;6.90;3.50;;;;;;;;;;5117847;28;20278;-64
2021/04/02 14:04:03;;;;;;;8.55;3.40;;;;;;;;;;5117677;28;20189;-65
2021/04/02 14:06:31;;;;;;;11.18;4.05;;;;;;;;;;5117750;28;20232;-65
2021/04/02 14:08:57;;;;;;;4.95;3.40;;;;;;;;;;5117286;28;20201;-64
2021/04/02 14:11:24;;;;;;;4.15;2.42;;;;;;;;;;5117102;28;20250;-65
2021/04/02 14:13:51;;;;;;;4.15;3.08;;;;;;;;;;5117846;28;20284;-64
2021/04/02 14:16:18;;;;;;;12.00;3.80;;;;;;;;;;5117165;28;20201;-64
2021/04/02 14:18:44;;;;;;;6.05;3.50;;;;;;;;;;5117008;28;20280;-64
2021/04/02 14:21:11;;;;;;;8.30;4.10;;;;;;;;;;5117404;28;20290;-64
2021/04/02 14:23:39;;;;;;;4.45;2.80;;;;;;;;;;5117051;28;20225;-64
2021/04/02 14:26:06;;;;;;;6.70;3.17;;;;;;;;;;5116560;28;20194;-65
2021/04/02 14:28:32;;;;;;;7.05;3.13;;;;;;;;;;5117091;28;20193;-66
2021/04/02 14:30:59;;;;;;;12.77;3.88;;;;;;;;;;5116919;28;20204;-64
2021/04/02 14:33:26;;;;;;;5.95;2.97;;;;;;;;;;5117052;28;20684;-66
2021/04/02 14:35:53;;;;;;;4.00;2.30;;;;;;;;;;5116709;28;20230;-68
2021/04/02 14:38:20;;;;;;;3.08;2.85;;;;;;;;;;5116928;28;20276;-66